sensor_id;sensor_type;location;lat;lon;timestamp;pressure;altitude;pressure_sealevel;temperature;humidity
53041;BME280;39326;42.650;23.248;2023-08-06T00:01:48;91529.50;;;18.39;85.36
53041;BME280;39326;42.650;23.248;2023-08-06T00:04:13;91550.22;;;18.33;85.14
53041;BME280;39326;42.650;23.248;2023-08-06T00:06:39;91541.66;;;18.35;84.70
53041;BME280;39326;42.650;23.248;2023-08-06T00:09:04;91545.72;;;18.30;85.97
53041;BME280;39326;42.650;23.248;2023-08-06T00:11:30;91547.38;;;18.28;85.74
53041;BME280;39326;42.650;23.248;2023-08-06T00:13:55;91551.31;;;18.27;87.17
53041;BME280;39326;42.650;23.248;2023-08-06T00:16:21;91544.06;;;18.33;86.78
53041;BME280;39326;42.650;23.248;2023-08-06T00:18:46;91553.38;;;18.32;86.95
53041;BME280;39326;42.650;23.248;2023-08-06T00:21:11;91552.81;;;18.19;87.69
53041;BME280;39326;42.650;23.248;2023-08-06T00:23:41;91557.38;;;18.03;88.78
53041;BME280;39326;42.650;23.248;2023-08-06T00:26:06;91565.59;;;18.00;88.57
53041;BME280;39326;42.650;23.248;2023-08-06T00:28:31;91557.50;;;18.00;88.46
53041;BME280;39326;42.650;23.248;2023-08-06T00:30:57;91545.03;;;18.11;88.30
53041;BME280;39326;42.650;23.248;2023-08-06T00:33:23;91534.25;;;18.11;88.38
53041;BME280;39326;42.650;23.248;2023-08-06T00:35:49;91523.00;;;18.13;87.85
53041;BME280;39326;42.650;23.248;2023-08-06T00:38:15;91518.38;;;18.04;88.67
53041;BME280;39326;42.650;23.248;2023-08-06T00:40:40;91528.91;;;17.93;89.42
53041;BME280;39326;42.650;23.248;2023-08-06T00:43:06;91530.59;;;17.81;90.40
53041;BME280;39326;42.650;23.248;2023-08-06T00:45:34;91533.28;;;17.72;91.08
53041;BME280;39326;42.650;23.248;2023-08-06T00:48:00;91529.41;;;17.55;91.73
53041;BME280;39326;42.650;23.248;2023-08-06T00:50:26;91527.13;;;17.72;90.15
53041;BME280;39326;42.650;23.248;2023-08-06T00:52:52;91524.44;;;17.81;89.74
53041;BME280;39326;42.650;23.248;2023-08-06T00:55:17;91519.50;;;17.79;90.20
53041;BME280;39326;42.650;23.248;2023-08-06T00:57:43;91506.75;;;17.89;89.35
53041;BME280;39326;42.650;23.248;2023-08-06T01:00:09;91514.69;;;17.74;90.90
53041;BME280;39326;42.650;23.248;2023-08-06T01:02:36;91522.50;;;17.81;90.07
53041;BME280;39326;42.650;23.248;2023-08-06T01:05:01;91511.53;;;17.85;89.95
53041;BME280;39326;42.650;23.248;2023-08-06T01:15:19;91482.34;;;17.83;89.24
53041;BME280;39326;42.650;23.248;2023-08-06T01:17:47;91491.66;;;17.64;90.53
53041;BME280;39326;42.650;23.248;2023-08-06T01:20:13;91494.53;;;17.51;91.22
53041;BME280;39326;42.650;23.248;2023-08-06T01:22:38;91490.91;;;17.54;90.24
53041;BME280;39326;42.650;23.248;2023-08-06T01:25:04;91497.59;;;17.68;89.56
53041;BME280;39326;42.650;23.248;2023-08-06T01:27:33;91492.66;;;17.76;89.16
53041;BME280;39326;42.650;23.248;2023-08-06T01:32:34;91472.88;;;17.88;88.65
53041;BME280;39326;42.650;23.248;2023-08-06T01:35:02;91467.31;;;17.92;88.21
53041;BME280;39326;42.650;23.248;2023-08-06T01:37:29;91470.75;;;17.92;88.66
53041;BME280;39326;42.650;23.248;2023-08-06T01:39:55;91471.53;;;17.74;89.88
53041;BME280;39326;42.650;23.248;2023-08-06T01:42:20;91468.56;;;17.81;89.58
53041;BME280;39326;42.650;23.248;2023-08-06T01:44:46;91479.03;;;17.79;89.46
53041;BME280;39326;42.650;23.248;2023-08-06T01:47:11;91473.78;;;17.85;88.80
53041;BME280;39326;42.650;23.248;2023-08-06T01:49:36;91476.91;;;17.74;89.12
53041;BME280;39326;42.650;23.248;2023-08-06T01:52:02;91483.38;;;17.68;89.51
53041;BME280;39326;42.650;23.248;2023-08-06T01:54:27;91488.94;;;17.55;89.74
53041;BME280;39326;42.650;23.248;2023-08-06T01:56:53;91479.97;;;17.58;88.90
53041;BME280;39326;42.650;23.248;2023-08-06T01:59:19;91473.50;;;17.65;88.87
53041;BME280;39326;42.650;23.248;2023-08-06T02:01:45;91455.25;;;17.69;88.90
53041;BME280;39326;42.650;23.248;2023-08-06T02:04:10;91444.56;;;17.74;88.52
53041;BME280;39326;42.650;23.248;2023-08-06T02:06:35;91463.44;;;17.74;88.18
53041;BME280;39326;42.650;23.248;2023-08-06T02:09:01;91459.84;;;17.68;88.65
53041;BME280;39326;42.650;23.248;2023-08-06T02:11:26;91464.94;;;17.75;88.08
53041;BME280;39326;42.650;23.248;2023-08-06T02:13:51;91469.88;;;17.77;87.91
53041;BME280;39326;42.650;23.248;2023-08-06T02:16:17;91478.88;;;17.74;88.49
53041;BME280;39326;42.650;23.248;2023-08-06T02:18:42;91483.09;;;17.66;88.62
53041;BME280;39326;42.650;23.248;2023-08-06T02:21:08;91493.16;;;17.47;90.01
53041;BME280;39326;42.650;23.248;2023-08-06T02:23:33;91493.47;;;17.40;89.99
53041;BME280;39326;42.650;23.248;2023-08-06T02:26:02;91480.72;;;17.49;89.99
53041;BME280;39326;42.650;23.248;2023-08-06T02:28:31;91455.56;;;17.52;90.41
53041;BME280;39326;42.650;23.248;2023-08-06T02:30:57;91454.81;;;17.43;90.77
53041;BME280;39326;42.650;23.248;2023-08-06T02:33:23;91441.66;;;17.45;90.85
53041;BME280;39326;42.650;23.248;2023-08-06T02:35:48;91474.31;;;17.47;91.21
53041;BME280;39326;42.650;23.248;2023-08-06T02:38:14;91491.38;;;17.53;90.76
53041;BME280;39326;42.650;23.248;2023-08-06T02:40:44;91500.34;;;17.59;90.28
53041;BME280;39326;42.650;23.248;2023-08-06T02:43:10;91498.38;;;17.69;90.57
53041;BME280;39326;42.650;23.248;2023-08-06T02:45:35;91488.03;;;17.76;90.33
53041;BME280;39326;42.650;23.248;2023-08-06T02:48:00;91466.91;;;17.75;91.16
53041;BME280;39326;42.650;23.248;2023-08-06T02:50:27;91461.50;;;17.84;90.42
53041;BME280;39326;42.650;23.248;2023-08-06T02:52:53;91444.69;;;17.89;90.94
53041;BME280;39326;42.650;23.248;2023-08-06T02:55:18;91440.91;;;17.96;91.01
53041;BME280;39326;42.650;23.248;2023-08-06T02:57:43;91454.75;;;17.89;91.59
53041;BME280;39326;42.650;23.248;2023-08-06T03:00:09;91456.81;;;17.94;90.60
53041;BME280;39326;42.650;23.248;2023-08-06T03:02:36;91413.97;;;17.86;90.57
53041;BME280;39326;42.650;23.248;2023-08-06T03:05:02;91408.72;;;17.92;90.79
53041;BME280;39326;42.650;23.248;2023-08-06T03:07:28;91422.94;;;17.93;90.14
53041;BME280;39326;42.650;23.248;2023-08-06T03:09:54;91452.19;;;17.94;90.42
53041;BME280;39326;42.650;23.248;2023-08-06T03:12:19;91461.31;;;17.97;90.05
53041;BME280;39326;42.650;23.248;2023-08-06T03:14:45;91432.09;;;17.95;90.37
53041;BME280;39326;42.650;23.248;2023-08-06T03:17:10;91418.88;;;17.97;90.42
53041;BME280;39326;42.650;23.248;2023-08-06T03:19:36;91419.63;;;17.98;90.85
53041;BME280;39326;42.650;23.248;2023-08-06T03:22:01;91435.81;;;17.98;90.32
53041;BME280;39326;42.650;23.248;2023-08-06T03:24:26;91431.16;;;17.98;89.88
53041;BME280;39326;42.650;23.248;2023-08-06T03:26:52;91420.38;;;17.98;90.29
53041;BME280;39326;42.650;23.248;2023-08-06T03:29:17;91431.34;;;17.95;90.74
53041;BME280;39326;42.650;23.248;2023-08-06T03:31:43;91444.78;;;18.04;90.30
53041;BME280;39326;42.650;23.248;2023-08-06T03:34:08;91442.66;;;18.08;89.46
53041;BME280;39326;42.650;23.248;2023-08-06T03:36:33;91452.25;;;18.09;90.06
53041;BME280;39326;42.650;23.248;2023-08-06T03:38:59;91457.50;;;18.12;89.92
53041;BME280;39326;42.650;23.248;2023-08-06T03:41:24;91456.44;;;18.10;90.82
53041;BME280;39326;42.650;23.248;2023-08-06T03:43:50;91450.91;;;18.04;91.49
53041;BME280;39326;42.650;23.248;2023-08-06T03:46:15;91465.75;;;18.09;91.30
53041;BME280;39326;42.650;23.248;2023-08-06T03:48:40;91480.13;;;18.06;91.32
53041;BME280;39326;42.650;23.248;2023-08-06T03:51:06;91487.19;;;18.03;91.85
53041;BME280;39326;42.650;23.248;2023-08-06T03:53:31;91479.09;;;18.12;91.34
53041;BME280;39326;42.650;23.248;2023-08-06T03:55:56;91480.72;;;18.10;91.71
53041;BME280;39326;42.650;23.248;2023-08-06T03:58:25;91490.97;;;17.97;91.78
53041;BME280;39326;42.650;23.248;2023-08-06T04:00:58;91486.00;;;18.04;91.17
53041;BME280;39326;42.650;23.248;2023-08-06T04:03:24;91486.19;;;18.01;91.25
53041;BME280;39326;42.650;23.248;2023-08-06T04:05:49;91479.56;;;18.02;91.46
53041;BME280;39326;42.650;23.248;2023-08-06T04:08:14;91478.22;;;18.06;91.21
53041;BME280;39326;42.650;23.248;2023-08-06T04:10:40;91482.97;;;18.11;91.25
53041;BME280;39326;42.650;23.248;2023-08-06T04:13:05;91485.06;;;18.17;91.39
53041;BME280;39326;42.650;23.248;2023-08-06T04:15:33;91497.66;;;18.20;91.13
53041;BME280;39326;42.650;23.248;2023-08-06T04:17:59;91491.66;;;18.16;91.65
53041;BME280;39326;42.650;23.248;2023-08-06T04:20:24;91497.97;;;18.12;91.73
53041;BME280;39326;42.650;23.248;2023-08-06T04:22:50;91490.00;;;18.18;91.79
53041;BME280;39326;42.650;23.248;2023-08-06T04:25:15;91486.63;;;17.99;92.74
53041;BME280;39326;42.650;23.248;2023-08-06T04:27:46;91481.22;;;17.99;92.03
53041;BME280;39326;42.650;23.248;2023-08-06T04:30:11;91481.69;;;17.98;92.39
53041;BME280;39326;42.650;23.248;2023-08-06T04:32:37;91477.91;;;18.04;91.86
53041;BME280;39326;42.650;23.248;2023-08-06T04:35:03;91477.28;;;18.09;91.97
53041;BME280;39326;42.650;23.248;2023-08-06T04:37:29;91471.75;;;18.13;91.92
53041;BME280;39326;42.650;23.248;2023-08-06T04:39:54;91471.63;;;17.98;93.70
53041;BME280;39326;42.650;23.248;2023-08-06T04:42:19;91464.13;;;18.02;93.08
53041;BME280;39326;42.650;23.248;2023-08-06T04:44:45;91448.34;;;18.10;92.67
53041;BME280;39326;42.650;23.248;2023-08-06T04:47:10;91433.50;;;18.14;92.34
53041;BME280;39326;42.650;23.248;2023-08-06T04:49:36;91426.13;;;18.15;91.84
53041;BME280;39326;42.650;23.248;2023-08-06T04:52:01;91428.25;;;18.11;91.87
53041;BME280;39326;42.650;23.248;2023-08-06T04:54:27;91418.84;;;18.06;92.15
53041;BME280;39326;42.650;23.248;2023-08-06T04:56:52;91401.56;;;18.13;91.81
53041;BME280;39326;42.650;23.248;2023-08-06T04:59:17;91396.91;;;18.13;91.67
53041;BME280;39326;42.650;23.248;2023-08-06T05:01:43;91396.72;;;18.17;91.98
53041;BME280;39326;42.650;23.248;2023-08-06T05:04:08;91395.22;;;18.25;91.78
53041;BME280;39326;42.650;23.248;2023-08-06T05:06:33;91401.50;;;18.22;91.85
53041;BME280;39326;42.650;23.248;2023-08-06T05:08:59;91415.34;;;18.15;92.27
53041;BME280;39326;42.650;23.248;2023-08-06T05:11:24;91418.66;;;18.10;92.71
53041;BME280;39326;42.650;23.248;2023-08-06T05:13:50;91412.47;;;18.19;92.59
53041;BME280;39326;42.650;23.248;2023-08-06T05:16:15;91415.00;;;18.22;92.36
53041;BME280;39326;42.650;23.248;2023-08-06T05:18:41;91414.78;;;18.35;92.68
53041;BME280;39326;42.650;23.248;2023-08-06T05:21:07;91420.56;;;18.43;92.93
53041;BME280;39326;42.650;23.248;2023-08-06T05:23:32;91428.06;;;18.72;92.42
53041;BME280;39326;42.650;23.248;2023-08-06T05:25:57;91430.81;;;18.86;92.59
53041;BME280;39326;42.650;23.248;2023-08-06T05:28:23;91426.56;;;18.94;91.74
53041;BME280;39326;42.650;23.248;2023-08-06T05:30:48;91427.53;;;18.82;91.32
53041;BME280;39326;42.650;23.248;2023-08-06T05:33:14;91428.94;;;18.92;90.02
53041;BME280;39326;42.650;23.248;2023-08-06T05:35:40;91425.69;;;18.88;90.03
53041;BME280;39326;42.650;23.248;2023-08-06T05:38:07;91413.56;;;18.84;90.96
53041;BME280;39326;42.650;23.248;2023-08-06T05:40:35;91415.75;;;18.94;90.58
53041;BME280;39326;42.650;23.248;2023-08-06T05:43:00;91420.72;;;18.87;90.01
53041;BME280;39326;42.650;23.248;2023-08-06T05:45:26;91419.19;;;18.95;89.17
53041;BME280;39326;42.650;23.248;2023-08-06T05:47:51;91423.28;;;19.05;87.82
53041;BME280;39326;42.650;23.248;2023-08-06T05:50:19;91424.22;;;19.02;89.09
53041;BME280;39326;42.650;23.248;2023-08-06T05:52:44;91425.88;;;19.00;88.64
53041;BME280;39326;42.650;23.248;2023-08-06T05:55:10;91430.38;;;19.03;89.00
53041;BME280;39326;42.650;23.248;2023-08-06T05:57:35;91438.59;;;19.08;88.58
53041;BME280;39326;42.650;23.248;2023-08-06T06:00:01;91440.28;;;19.20;88.05
53041;BME280;39326;42.650;23.248;2023-08-06T06:02:27;91448.56;;;19.02;88.45
53041;BME280;39326;42.650;23.248;2023-08-06T06:04:53;91447.47;;;19.24;87.38
53041;BME280;39326;42.650;23.248;2023-08-06T06:07:18;91444.22;;;19.34;86.64
53041;BME280;39326;42.650;23.248;2023-08-06T06:09:44;91440.94;;;19.30;86.65
53041;BME280;39326;42.650;23.248;2023-08-06T06:12:09;91452.91;;;19.38;87.66
53041;BME280;39326;42.650;23.248;2023-08-06T06:14:35;91454.38;;;19.39;86.59
53041;BME280;39326;42.650;23.248;2023-08-06T06:17:00;91465.88;;;19.49;85.95
53041;BME280;39326;42.650;23.248;2023-08-06T06:19:26;91466.19;;;19.51;85.49
53041;BME280;39326;42.650;23.248;2023-08-06T06:21:52;91457.22;;;19.60;84.97
53041;BME280;39326;42.650;23.248;2023-08-06T06:24:18;91463.66;;;19.77;85.84
53041;BME280;39326;42.650;23.248;2023-08-06T06:26:43;91469.91;;;19.54;84.29
53041;BME280;39326;42.650;23.248;2023-08-06T06:29:09;91474.19;;;19.60;84.23
53041;BME280;39326;42.650;23.248;2023-08-06T06:31:34;91479.22;;;19.53;85.46
53041;BME280;39326;42.650;23.248;2023-08-06T06:34:00;91494.88;;;19.48;85.32
53041;BME280;39326;42.650;23.248;2023-08-06T06:36:26;91485.38;;;19.53;84.68
53041;BME280;39326;42.650;23.248;2023-08-06T06:38:51;91498.28;;;19.58;85.01
53041;BME280;39326;42.650;23.248;2023-08-06T06:41:17;91505.31;;;19.41;84.76
53041;BME280;39326;42.650;23.248;2023-08-06T06:43:42;91511.84;;;19.49;84.21
53041;BME280;39326;42.650;23.248;2023-08-06T06:46:08;91513.19;;;19.30;83.56
53041;BME280;39326;42.650;23.248;2023-08-06T06:48:33;91517.38;;;19.31;83.62
53041;BME280;39326;42.650;23.248;2023-08-06T06:50:59;91515.47;;;19.46;83.25
53041;BME280;39326;42.650;23.248;2023-08-06T06:53:25;91511.97;;;19.55;82.98
53041;BME280;39326;42.650;23.248;2023-08-06T06:56:01;91508.63;;;19.74;82.56
53041;BME280;39326;42.650;23.248;2023-08-06T06:58:26;91531.41;;;19.83;82.00
53041;BME280;39326;42.650;23.248;2023-08-06T07:00:52;91531.19;;;19.86;81.31
53041;BME280;39326;42.650;23.248;2023-08-06T07:03:19;91533.06;;;19.80;81.37
53041;BME280;39326;42.650;23.248;2023-08-06T07:05:44;91540.81;;;19.87;80.58
53041;BME280;39326;42.650;23.248;2023-08-06T07:08:10;91536.72;;;19.92;78.52
53041;BME280;39326;42.650;23.248;2023-08-06T07:10:35;91540.53;;;20.15;79.10
53041;BME280;39326;42.650;23.248;2023-08-06T07:13:01;91546.31;;;20.22;77.43
53041;BME280;39326;42.650;23.248;2023-08-06T07:15:26;91545.50;;;20.46;76.72
53041;BME280;39326;42.650;23.248;2023-08-06T07:17:52;91545.31;;;20.35;73.93
53041;BME280;39326;42.650;23.248;2023-08-06T07:20:17;91553.03;;;20.57;73.47
53041;BME280;39326;42.650;23.248;2023-08-06T07:22:44;91555.03;;;20.76;71.87
53041;BME280;39326;42.650;23.248;2023-08-06T07:25:09;91556.25;;;20.75;71.21
53041;BME280;39326;42.650;23.248;2023-08-06T07:27:35;91557.16;;;20.87;70.43
53041;BME280;39326;42.650;23.248;2023-08-06T07:30:00;91550.19;;;21.01;68.82
53041;BME280;39326;42.650;23.248;2023-08-06T07:32:26;91559.31;;;21.18;68.47
53041;BME280;39326;42.650;23.248;2023-08-06T07:34:53;91552.88;;;21.36;68.12
53041;BME280;39326;42.650;23.248;2023-08-06T07:37:22;91554.56;;;21.54;67.54
53041;BME280;39326;42.650;23.248;2023-08-06T07:39:48;91558.66;;;21.70;67.88
53041;BME280;39326;42.650;23.248;2023-08-06T07:42:13;91552.66;;;21.60;66.34
53041;BME280;39326;42.650;23.248;2023-08-06T07:44:39;91555.81;;;21.79;66.47
53041;BME280;39326;42.650;23.248;2023-08-06T07:47:05;91552.81;;;21.97;63.42
53041;BME280;39326;42.650;23.248;2023-08-06T07:49:30;91548.44;;;22.05;63.12
53041;BME280;39326;42.650;23.248;2023-08-06T07:51:55;91544.97;;;22.05;64.16
53041;BME280;39326;42.650;23.248;2023-08-06T07:54:21;91554.03;;;22.22;63.54
53041;BME280;39326;42.650;23.248;2023-08-06T07:56:47;91548.16;;;22.29;63.65
53041;BME280;39326;42.650;23.248;2023-08-06T07:59:12;91544.22;;;22.30;63.45
53041;BME280;39326;42.650;23.248;2023-08-06T08:01:38;91552.41;;;22.36;61.94
53041;BME280;39326;42.650;23.248;2023-08-06T08:04:03;91548.72;;;22.39;61.29
53041;BME280;39326;42.650;23.248;2023-08-06T08:06:29;91541.69;;;22.53;59.62
53041;BME280;39326;42.650;23.248;2023-08-06T08:08:55;91537.81;;;22.33;59.96
53041;BME280;39326;42.650;23.248;2023-08-06T08:11:20;91540.03;;;22.61;60.08
53041;BME280;39326;42.650;23.248;2023-08-06T08:13:46;91542.22;;;22.57;58.65
53041;BME280;39326;42.650;23.248;2023-08-06T08:16:11;91541.59;;;22.73;57.64
53041;BME280;39326;42.650;23.248;2023-08-06T08:18:37;91541.69;;;22.90;58.00
53041;BME280;39326;42.650;23.248;2023-08-06T08:21:02;91537.00;;;22.96;58.05
53041;BME280;39326;42.650;23.248;2023-08-06T08:23:28;91540.94;;;22.89;59.10
53041;BME280;39326;42.650;23.248;2023-08-06T08:25:53;91541.88;;;23.23;57.79
53041;BME280;39326;42.650;23.248;2023-08-06T08:28:19;91539.00;;;23.44;57.41
53041;BME280;39326;42.650;23.248;2023-08-06T08:30:45;91533.34;;;23.53;57.38
53041;BME280;39326;42.650;23.248;2023-08-06T08:33:10;91537.06;;;23.56;57.47
53041;BME280;39326;42.650;23.248;2023-08-06T08:35:36;91536.25;;;23.38;55.69
53041;BME280;39326;42.650;23.248;2023-08-06T08:38:02;91545.72;;;23.48;56.13
53041;BME280;39326;42.650;23.248;2023-08-06T08:40:31;91536.34;;;23.61;54.33
53041;BME280;39326;42.650;23.248;2023-08-06T08:42:58;91530.47;;;23.79;54.72
53041;BME280;39326;42.650;23.248;2023-08-06T08:45:26;91532.44;;;23.79;53.95
53041;BME280;39326;42.650;23.248;2023-08-06T08:47:52;91521.72;;;23.47;53.99
53041;BME280;39326;42.650;23.248;2023-08-06T08:50:18;91526.97;;;23.73;54.15
53041;BME280;39326;42.650;23.248;2023-08-06T08:52:45;91520.34;;;23.91;52.73
53041;BME280;39326;42.650;23.248;2023-08-06T08:55:12;91530.03;;;24.14;51.56
53041;BME280;39326;42.650;23.248;2023-08-06T08:57:39;91512.47;;;24.10;51.38
53041;BME280;39326;42.650;23.248;2023-08-06T09:00:05;91520.16;;;24.22;51.59
53041;BME280;39326;42.650;23.248;2023-08-06T09:02:32;91519.38;;;24.22;52.45
53041;BME280;39326;42.650;23.248;2023-08-06T09:04:58;91519.88;;;24.32;50.51
53041;BME280;39326;42.650;23.248;2023-08-06T09:07:32;91516.69;;;24.67;50.68
53041;BME280;39326;42.650;23.248;2023-08-06T09:10:02;91515.91;;;24.83;49.56
53041;BME280;39326;42.650;23.248;2023-08-06T09:12:29;91515.88;;;24.94;49.05
53041;BME280;39326;42.650;23.248;2023-08-06T09:14:54;91519.06;;;25.09;48.92
53041;BME280;39326;42.650;23.248;2023-08-06T09:17:19;91508.38;;;25.17;49.20
53041;BME280;39326;42.650;23.248;2023-08-06T09:19:46;91507.59;;;25.33;48.50
53041;BME280;39326;42.650;23.248;2023-08-06T09:22:13;91505.34;;;25.43;48.28
53041;BME280;39326;42.650;23.248;2023-08-06T09:24:41;91505.88;;;25.25;48.03
53041;BME280;39326;42.650;23.248;2023-08-06T09:27:16;91502.63;;;25.38;47.29
53041;BME280;39326;42.650;23.248;2023-08-06T09:29:45;91506.94;;;25.74;46.89
53041;BME280;39326;42.650;23.248;2023-08-06T09:32:12;91501.59;;;25.99;45.76
53041;BME280;39326;42.650;23.248;2023-08-06T09:34:42;91491.47;;;25.82;45.94
53041;BME280;39326;42.650;23.248;2023-08-06T09:37:09;91499.03;;;25.59;46.41
53041;BME280;39326;42.650;23.248;2023-08-06T09:39:35;91487.50;;;25.83;47.08
53041;BME280;39326;42.650;23.248;2023-08-06T09:42:02;91483.28;;;25.82;45.95
53041;BME280;39326;42.650;23.248;2023-08-06T09:44:30;91490.13;;;25.53;45.87
53041;BME280;39326;42.650;23.248;2023-08-06T09:46:58;91487.28;;;25.76;45.48
53041;BME280;39326;42.650;23.248;2023-08-06T09:51:59;91506.03;;;25.55;46.87
53041;BME280;39326;42.650;23.248;2023-08-06T09:54:26;91489.91;;;25.51;46.29
53041;BME280;39326;42.650;23.248;2023-08-06T09:56:53;91490.69;;;25.41;47.62
53041;BME280;39326;42.650;23.248;2023-08-06T09:59:19;91494.78;;;25.06;46.57
53041;BME280;39326;42.650;23.248;2023-08-06T10:01:45;91490.09;;;24.95;46.81
53041;BME280;39326;42.650;23.248;2023-08-06T10:04:12;91498.03;;;24.93;47.05
53041;BME280;39326;42.650;23.248;2023-08-06T10:06:42;91501.03;;;24.78;47.52
53041;BME280;39326;42.650;23.248;2023-08-06T10:09:08;91504.75;;;24.81;47.24
53041;BME280;39326;42.650;23.248;2023-08-06T10:11:36;91496.78;;;25.00;47.52
53041;BME280;39326;42.650;23.248;2023-08-06T10:14:23;91502.66;;;25.32;45.74
53041;BME280;39326;42.650;23.248;2023-08-06T10:16:50;91501.78;;;25.59;45.09
53041;BME280;39326;42.650;23.248;2023-08-06T10:19:16;91504.78;;;25.56;44.88
53041;BME280;39326;42.650;23.248;2023-08-06T10:22:09;91501.56;;;25.52;45.24
53041;BME280;39326;42.650;23.248;2023-08-06T10:24:55;91508.09;;;25.32;45.58
53041;BME280;39326;42.650;23.248;2023-08-06T10:33:04;91505.66;;;25.17;44.06
53041;BME280;39326;42.650;23.248;2023-08-06T10:35:43;91521.53;;;25.13;44.07
53041;BME280;39326;42.650;23.248;2023-08-06T10:38:18;91522.28;;;25.08;43.90
53041;BME280;39326;42.650;23.248;2023-08-06T10:43:35;91525.09;;;24.69;45.17
53041;BME280;39326;42.650;23.248;2023-08-06T10:46:03;91531.03;;;24.50;46.14
53041;BME280;39326;42.650;23.248;2023-08-06T10:48:40;91532.78;;;24.37;46.13
53041;BME280;39326;42.650;23.248;2023-08-06T10:51:11;91539.22;;;24.11;47.27
53041;BME280;39326;42.650;23.248;2023-08-06T10:53:38;91535.22;;;24.07;47.06
53041;BME280;39326;42.650;23.248;2023-08-06T10:56:16;91536.16;;;23.81;47.95
53041;BME280;39326;42.650;23.248;2023-08-06T10:58:43;91541.56;;;23.75;48.19
53041;BME280;39326;42.650;23.248;2023-08-06T11:01:10;91554.22;;;23.79;48.72
53041;BME280;39326;42.650;23.248;2023-08-06T11:03:36;91540.28;;;23.54;49.04
53041;BME280;39326;42.650;23.248;2023-08-06T11:06:02;91549.00;;;23.69;49.60
53041;BME280;39326;42.650;23.248;2023-08-06T11:08:32;91548.25;;;23.74;49.20
53041;BME280;39326;42.650;23.248;2023-08-06T11:11:08;91550.03;;;23.89;49.20
53041;BME280;39326;42.650;23.248;2023-08-06T11:13:36;91541.34;;;23.73;48.46
53041;BME280;39326;42.650;23.248;2023-08-06T11:16:01;91561.06;;;23.52;49.59
53041;BME280;39326;42.650;23.248;2023-08-06T11:18:28;91555.41;;;23.12;51.80
53041;BME280;39326;42.650;23.248;2023-08-06T11:20:54;91552.59;;;22.95;52.08
53041;BME280;39326;42.650;23.248;2023-08-06T11:23:19;91569.88;;;22.55;52.90
53041;BME280;39326;42.650;23.248;2023-08-06T11:25:45;91564.69;;;22.57;53.56
53041;BME280;39326;42.650;23.248;2023-08-06T11:28:11;91571.16;;;22.60;53.65
53041;BME280;39326;42.650;23.248;2023-08-06T11:30:37;91559.75;;;22.56;54.23
53041;BME280;39326;42.650;23.248;2023-08-06T11:33:03;91564.13;;;22.48;55.59
53041;BME280;39326;42.650;23.248;2023-08-06T11:35:34;91560.78;;;22.64;55.05
53041;BME280;39326;42.650;23.248;2023-08-06T11:38:00;91558.41;;;22.77;54.47
53041;BME280;39326;42.650;23.248;2023-08-06T11:40:25;91559.25;;;22.94;53.98
53041;BME280;39326;42.650;23.248;2023-08-06T11:42:51;91548.41;;;23.00;53.81
53041;BME280;39326;42.650;23.248;2023-08-06T11:45:22;91551.47;;;23.13;51.59
53041;BME280;39326;42.650;23.248;2023-08-06T11:47:50;91543.09;;;23.22;51.35
53041;BME280;39326;42.650;23.248;2023-08-06T11:50:25;91534.84;;;23.54;50.32
53041;BME280;39326;42.650;23.248;2023-08-06T11:52:59;91534.75;;;24.14;49.89
53041;BME280;39326;42.650;23.248;2023-08-06T11:55:27;91530.31;;;24.61;48.69
53041;BME280;39326;42.650;23.248;2023-08-06T11:57:54;91526.56;;;24.92;47.41
53041;BME280;39326;42.650;23.248;2023-08-06T12:00:20;91531.97;;;25.09;45.38
53041;BME280;39326;42.650;23.248;2023-08-06T12:02:48;91530.94;;;25.29;43.58
53041;BME280;39326;42.650;23.248;2023-08-06T12:05:19;91524.91;;;25.53;44.07
53041;BME280;39326;42.650;23.248;2023-08-06T12:07:56;91521.72;;;25.43;45.48
53041;BME280;39326;42.650;23.248;2023-08-06T12:10:23;91529.47;;;25.28;46.49
53041;BME280;39326;42.650;23.248;2023-08-06T12:12:49;91541.63;;;25.10;47.63
53041;BME280;39326;42.650;23.248;2023-08-06T12:15:15;91533.25;;;24.91;47.73
53041;BME280;39326;42.650;23.248;2023-08-06T12:17:41;91530.56;;;24.80;47.68
53041;BME280;39326;42.650;23.248;2023-08-06T12:20:08;91530.81;;;24.65;48.15
53041;BME280;39326;42.650;23.248;2023-08-06T12:22:34;91531.53;;;24.71;48.09
53041;BME280;39326;42.650;23.248;2023-08-06T12:25:02;91526.34;;;24.79;49.16
53041;BME280;39326;42.650;23.248;2023-08-06T12:27:36;91533.53;;;24.71;49.57
53041;BME280;39326;42.650;23.248;2023-08-06T12:30:01;91534.03;;;24.75;49.23
53041;BME280;39326;42.650;23.248;2023-08-06T12:32:29;91538.00;;;24.74;49.64
53041;BME280;39326;42.650;23.248;2023-08-06T12:34:54;91538.00;;;24.68;49.26
53041;BME280;39326;42.650;23.248;2023-08-06T12:37:20;91550.41;;;24.69;49.52
53041;BME280;39326;42.650;23.248;2023-08-06T12:39:45;91541.97;;;24.62;49.60
53041;BME280;39326;42.650;23.248;2023-08-06T12:42:10;91527.84;;;24.63;48.07
53041;BME280;39326;42.650;23.248;2023-08-06T12:44:36;91535.25;;;24.51;49.61
53041;BME280;39326;42.650;23.248;2023-08-06T12:47:02;91523.09;;;24.58;50.23
53041;BME280;39326;42.650;23.248;2023-08-06T12:49:27;91527.31;;;24.53;50.56
53041;BME280;39326;42.650;23.248;2023-08-06T12:51:54;91521.84;;;24.59;49.96
53041;BME280;39326;42.650;23.248;2023-08-06T12:54:20;91521.38;;;24.72;49.31
53041;BME280;39326;42.650;23.248;2023-08-06T12:56:46;91533.28;;;24.80;48.80
53041;BME280;39326;42.650;23.248;2023-08-06T12:59:14;91528.06;;;24.54;47.93
53041;BME280;39326;42.650;23.248;2023-08-06T13:01:40;91519.88;;;24.60;47.35
53041;BME280;39326;42.650;23.248;2023-08-06T13:04:06;91517.66;;;24.69;47.28
53041;BME280;39326;42.650;23.248;2023-08-06T13:06:31;91516.63;;;24.89;47.02
53041;BME280;39326;42.650;23.248;2023-08-06T13:09:03;91515.91;;;24.89;47.21